Time;durP1;ratioP1;P1;durP2;ratioP2;P2;SDS_P1;SDS_P2;PMS_P1;PMS_P2;Temp;Humidity;BMP_temperature;BMP_pressure;BME280_temperature;BME280_humidity;BME280_pressure;Samples;Min_cycle;Max_cycle;Signal;HPM_P1;HPM_P2
2021/11/19 00:02:17;;;;;;;12.75;7.18;;;;;;;;;;4978923;28;20189;-79
2021/11/19 00:04:43;;;;;;;13.27;6.88;;;;;;;;;;4997364;28;20207;-79
2021/11/19 00:07:10;;;;;;;10.38;7.57;;;;;;;;;;4977287;28;20185;-80
2021/11/19 00:09:36;;;;;;;10.80;7.00;;;;;;;;;;4995830;28;20204;-78
2021/11/19 00:12:03;;;;;;;10.75;7.07;;;;;;;;;;4982163;28;20232;-79
2021/11/19 00:14:29;;;;;;;11.93;8.23;;;;;;;;;;4997048;28;20214;-79
2021/11/19 00:17:08;;;;;;;10.35;7.45;;;;;;;;;;4980279;28;20211;-79
2021/11/19 00:19:35;;;;;;;10.88;6.40;;;;;;;;;;4984044;28;20195;-79
2021/11/19 00:22:01;;;;;;;11.90;7.15;;;;;;;;;;4978925;28;20190;-79
2021/11/19 00:24:27;;;;;;;10.75;7.35;;;;;;;;;;4980110;28;20179;-79
2021/11/19 00:26:53;;;;;;;11.80;6.55;;;;;;;;;;4992589;28;20278;-79
2021/11/19 00:29:19;;;;;;;8.38;6.97;;;;;;;;;;4982104;28;20251;-79
2021/11/19 00:31:46;;;;;;;11.18;7.75;;;;;;;;;;4981640;28;20195;-79
2021/11/19 00:34:12;;;;;;;9.05;7.40;;;;;;;;;;4994750;28;20613;-79
2021/11/19 00:36:38;;;;;;;10.68;6.28;;;;;;;;;;4980927;28;20195;-79
2021/11/19 00:39:07;;;;;;;10.15;6.65;;;;;;;;;;4991663;28;20203;-80
2021/11/19 00:41:33;;;;;;;10.15;7.03;;;;;;;;;;4992147;28;20189;-79
2021/11/19 00:44:00;;;;;;;11.20;7.50;;;;;;;;;;4995366;28;20184;-80
2021/11/19 00:46:26;;;;;;;12.13;7.13;;;;;;;;;;4993895;28;20216;-80
2021/11/19 00:48:52;;;;;;;10.07;6.25;;;;;;;;;;4979046;28;20195;-79
2021/11/19 00:51:20;;;;;;;12.00;6.90;;;;;;;;;;4993489;28;20271;-79
2021/11/19 00:53:47;;;;;;;9.18;6.10;;;;;;;;;;4976841;28;20446;-79
2021/11/19 00:56:18;;;;;;;11.70;7.13;;;;;;;;;;4993847;28;20219;-79
2021/11/19 00:58:45;;;;;;;8.77;5.95;;;;;;;;;;4995435;28;20208;-80
2021/11/19 01:01:13;;;;;;;7.90;5.95;;;;;;;;;;4977481;28;20203;-80
2021/11/19 01:03:39;;;;;;;7.78;6.50;;;;;;;;;;4996831;28;20179;-80
2021/11/19 01:06:05;;;;;;;11.35;7.35;;;;;;;;;;4991105;28;20191;-80
2021/11/19 01:08:31;;;;;;;7.85;5.90;;;;;;;;;;4990858;28;20189;-79
2021/11/19 01:11:00;;;;;;;11.02;6.47;;;;;;;;;;4995577;28;20243;-79
2021/11/19 01:13:26;;;;;;;8.50;5.43;;;;;;;;;;4978892;28;20188;-79
2021/11/19 01:15:55;;;;;;;12.00;6.30;;;;;;;;;;4977561;28;20207;-80
2021/11/19 01:18:24;;;;;;;11.45;6.30;;;;;;;;;;4992653;28;20249;-80
2021/11/19 01:20:53;;;;;;;9.55;6.10;;;;;;;;;;4976673;28;20187;-80
2021/11/19 01:23:21;;;;;;;10.98;7.95;;;;;;;;;;4991186;28;20184;-79
2021/11/19 01:25:52;;;;;;;9.02;6.28;;;;;;;;;;4996637;28;20187;-80
2021/11/19 01:28:18;;;;;;;8.70;6.47;;;;;;;;;;4991911;28;20185;-79
2021/11/19 01:30:46;;;;;;;8.93;6.03;;;;;;;;;;4979789;28;20184;-80
2021/11/19 01:33:13;;;;;;;8.95;6.32;;;;;;;;;;4977505;28;20247;-80
2021/11/19 01:35:39;;;;;;;7.75;6.28;;;;;;;;;;4976303;28;20212;-80
2021/11/19 01:38:05;;;;;;;8.68;6.22;;;;;;;;;;4978569;28;20220;-80
2021/11/19 01:40:33;;;;;;;10.57;6.78;;;;;;;;;;4993976;28;20185;-80
2021/11/19 01:43:01;;;;;;;11.20;6.70;;;;;;;;;;4977226;28;20179;-80
2021/11/19 01:45:34;;;;;;;11.88;6.68;;;;;;;;;;4993043;28;20658;-80
2021/11/19 01:48:01;;;;;;;12.40;6.75;;;;;;;;;;4990534;28;20669;-79
2021/11/19 01:50:27;;;;;;;11.65;6.72;;;;;;;;;;4975382;28;20255;-79
2021/11/19 01:52:57;;;;;;;9.43;6.55;;;;;;;;;;4981779;28;20219;-79
2021/11/19 01:55:25;;;;;;;11.00;6.70;;;;;;;;;;4993027;28;20204;-79
2021/11/19 01:57:59;;;;;;;10.82;6.32;;;;;;;;;;4976434;28;20570;-79
2021/11/19 02:00:40;;;;;;;10.20;6.60;;;;;;;;;;4993067;28;20227;-80
2021/11/19 02:03:07;;;;;;;9.57;6.60;;;;;;;;;;4990959;28;20183;-80
2021/11/19 02:05:36;;;;;;;9.55;6.80;;;;;;;;;;4992554;28;20195;-80
2021/11/19 02:08:09;;;;;;;11.68;6.45;;;;;;;;;;4993346;28;20203;-80
2021/11/19 02:10:41;;;;;;;8.35;5.47;;;;;;;;;;4979359;28;20180;-80
2021/11/19 02:13:25;;;;;;;10.65;7.20;;;;;;;;;;4976531;28;20192;-79
2021/11/19 02:15:56;;;;;;;8.70;5.95;;;;;;;;;;4980070;28;20195;-80
2021/11/19 02:18:24;;;;;;;10.75;6.10;;;;;;;;;;4993945;28;20211;-80
2021/11/19 02:20:53;;;;;;;7.40;6.07;;;;;;;;;;4982147;28;20431;-80
2021/11/19 02:23:24;;;;;;;8.57;6.47;;;;;;;;;;4983464;28;20216;-79
2021/11/19 02:25:58;;;;;;;7.13;6.43;;;;;;;;;;4986698;28;20270;-80
2021/11/19 02:28:27;;;;;;;9.63;6.18;;;;;;;;;;4998367;28;20283;-80
2021/11/19 02:30:55;;;;;;;10.95;6.22;;;;;;;;;;4983403;28;20183;-80
2021/11/19 02:33:22;;;;;;;9.32;6.35;;;;;;;;;;4995814;28;20175;-80
2021/11/19 02:35:48;;;;;;;9.40;6.40;;;;;;;;;;4997653;28;20225;-80
2021/11/19 02:38:14;;;;;;;7.20;6.17;;;;;;;;;;4983223;28;20207;-80
2021/11/19 02:40:42;;;;;;;8.35;6.00;;;;;;;;;;4989805;28;20782;-80
2021/11/19 02:43:39;;;;;;;10.10;5.80;;;;;;;;;;4986837;28;20240;-80
2021/11/19 02:46:05;;;;;;;8.27;5.22;;;;;;;;;;4998255;28;20227;-80
2021/11/19 02:48:33;;;;;;;10.73;6.45;;;;;;;;;;5000756;28;20755;-79
2021/11/19 02:51:00;;;;;;;9.20;5.45;;;;;;;;;;4997109;28;20255;-80
2021/11/19 02:53:26;;;;;;;11.13;6.28;;;;;;;;;;4982155;28;20251;-80
2021/11/19 02:55:54;;;;;;;7.50;5.82;;;;;;;;;;4987956;28;20211;-80
2021/11/19 02:58:22;;;;;;;8.65;5.47;;;;;;;;;;4981296;28;20193;-80
2021/11/19 03:01:03;;;;;;;10.45;6.22;;;;;;;;;;4983492;28;20172;-80
2021/11/19 03:03:30;;;;;;;8.90;5.25;;;;;;;;;;5004760;28;20180;-80
2021/11/19 03:05:56;;;;;;;10.25;5.25;;;;;;;;;;4981940;28;20179;-80
2021/11/19 03:08:22;;;;;;;8.43;5.38;;;;;;;;;;5001937;28;20187;-80
2021/11/19 03:10:49;;;;;;;7.55;4.78;;;;;;;;;;4988101;28;20234;-80
2021/11/19 03:13:16;;;;;;;7.43;4.72;;;;;;;;;;5000713;28;20259;-80
2021/11/19 03:15:45;;;;;;;13.88;5.05;;;;;;;;;;4983376;28;20669;-80
2021/11/19 03:18:13;;;;;;;9.38;6.07;;;;;;;;;;4998051;28;20195;-80
2021/11/19 03:20:40;;;;;;;10.52;5.40;;;;;;;;;;4986949;28;20176;-80
2021/11/19 03:23:07;;;;;;;9.23;5.28;;;;;;;;;;4981521;28;20192;-80
2021/11/19 03:25:35;;;;;;;12.27;5.20;;;;;;;;;;4986085;28;20184;-80
2021/11/19 03:28:01;;;;;;;10.02;5.55;;;;;;;;;;4981409;28;20191;-80
2021/11/19 03:30:28;;;;;;;6.20;4.80;;;;;;;;;;4982726;28;20633;-80
2021/11/19 03:32:54;;;;;;;9.88;5.05;;;;;;;;;;4977929;28;20243;-80
2021/11/19 03:35:21;;;;;;;9.20;5.35;;;;;;;;;;4981512;28;20454;-80
2021/11/19 03:37:48;;;;;;;10.75;5.57;;;;;;;;;;4998364;28;20180;-80
2021/11/19 03:40:16;;;;;;;6.72;5.30;;;;;;;;;;4978792;28;20198;-80
2021/11/19 03:42:42;;;;;;;8.10;4.50;;;;;;;;;;4981919;28;20235;-80
2021/11/19 03:45:10;;;;;;;6.25;4.50;;;;;;;;;;4983235;28;20172;-80
2021/11/19 03:47:38;;;;;;;8.45;4.30;;;;;;;;;;4992606;28;20192;-80
2021/11/19 03:50:07;;;;;;;11.43;5.35;;;;;;;;;;4979588;28;20203;-80
2021/11/19 03:52:35;;;;;;;9.10;5.28;;;;;;;;;;4995886;28;20223;-80
2021/11/19 03:55:04;;;;;;;7.20;4.40;;;;;;;;;;4985581;28;20184;-80
2021/11/19 03:57:30;;;;;;;8.40;5.10;;;;;;;;;;4995574;28;20183;-80
2021/11/19 03:59:56;;;;;;;9.27;4.68;;;;;;;;;;4989327;28;20271;-80
2021/11/19 04:02:23;;;;;;;7.35;4.50;;;;;;;;;;4974226;28;20192;-80
2021/11/19 04:04:49;;;;;;;9.70;5.07;;;;;;;;;;4982452;28;20184;-80
2021/11/19 04:07:16;;;;;;;8.07;4.60;;;;;;;;;;4994179;28;20191;-80
2021/11/19 04:09:44;;;;;;;6.68;4.65;;;;;;;;;;4979755;28;20555;-80
2021/11/19 04:12:11;;;;;;;8.63;4.63;;;;;;;;;;4993348;28;20265;-80
2021/11/19 04:14:37;;;;;;;9.95;4.97;;;;;;;;;;4976638;28;20220;-80
2021/11/19 04:17:03;;;;;;;8.10;4.35;;;;;;;;;;4994686;28;20227;-80
2021/11/19 04:19:30;;;;;;;8.02;5.20;;;;;;;;;;4994884;28;20176;-80
2021/11/19 04:21:57;;;;;;;5.68;4.35;;;;;;;;;;4978502;28;20247;-80
2021/11/19 04:24:27;;;;;;;6.15;4.30;;;;;;;;;;4994574;28;20176;-80
2021/11/19 04:26:53;;;;;;;6.85;4.28;;;;;;;;;;4994008;28;20183;-80
2021/11/19 04:29:19;;;;;;;6.63;4.35;;;;;;;;;;4977672;28;20271;-80
2021/11/19 04:31:45;;;;;;;9.23;5.32;;;;;;;;;;4983555;28;20641;-80
2021/11/19 04:34:12;;;;;;;6.88;4.38;;;;;;;;;;4993031;28;20195;-80
2021/11/19 04:36:39;;;;;;;8.63;4.95;;;;;;;;;;4996601;28;20203;-80
2021/11/19 04:39:06;;;;;;;8.35;4.50;;;;;;;;;;4992314;28;20188;-80
2021/11/19 04:41:32;;;;;;;12.02;5.32;;;;;;;;;;4981338;28;20180;-80
2021/11/19 04:43:58;;;;;;;8.57;5.03;;;;;;;;;;4979762;28;20215;-80
2021/11/19 04:46:24;;;;;;;8.95;4.95;;;;;;;;;;4977847;28;20248;-80
2021/11/19 04:48:51;;;;;;;7.10;6.00;;;;;;;;;;4978802;28;20278;-80
2021/11/19 04:51:22;;;;;;;6.32;3.90;;;;;;;;;;4995587;28;20175;-80
2021/11/19 04:53:48;;;;;;;7.78;4.95;;;;;;;;;;4977355;28;20184;-80
2021/11/19 04:56:15;;;;;;;6.32;4.32;;;;;;;;;;4993739;28;20204;-80
2021/11/19 04:58:42;;;;;;;4.75;3.72;;;;;;;;;;4994883;28;20199;-80
2021/11/19 05:01:10;;;;;;;5.32;3.85;;;;;;;;;;4976724;28;20191;-80
2021/11/19 05:03:37;;;;;;;7.75;4.75;;;;;;;;;;4994986;28;20179;-80
2021/11/19 05:06:03;;;;;;;7.72;4.15;;;;;;;;;;4991773;28;20202;-80
2021/11/19 05:08:30;;;;;;;7.70;3.88;;;;;;;;;;4977119;28;20244;-80
2021/11/19 05:10:57;;;;;;;5.90;3.67;;;;;;;;;;4996298;28;20223;-80
2021/11/19 05:13:23;;;;;;;7.05;3.65;;;;;;;;;;4979972;28;20271;-80
2021/11/19 05:15:52;;;;;;;6.85;4.55;;;;;;;;;;4979127;28;20237;-80
2021/11/19 05:18:18;;;;;;;6.40;4.05;;;;;;;;;;4980206;28;20172;-80
2021/11/19 05:20:44;;;;;;;7.07;5.10;;;;;;;;;;4979818;28;20677;-79
2021/11/19 05:23:10;;;;;;;6.07;3.95;;;;;;;;;;4981171;28;20255;-80
2021/11/19 05:25:39;;;;;;;8.90;4.97;;;;;;;;;;4998317;28;20194;-80
2021/11/19 05:28:06;;;;;;;9.18;4.90;;;;;;;;;;4977213;28;20242;-80
2021/11/19 05:30:32;;;;;;;8.40;3.47;;;;;;;;;;4980553;28;20184;-80
2021/11/19 05:32:58;;;;;;;6.82;3.53;;;;;;;;;;4991295;28;20240;-80
2021/11/19 05:35:25;;;;;;;6.70;4.18;;;;;;;;;;4976054;28;20197;-80
2021/11/19 05:37:51;;;;;;;7.20;3.95;;;;;;;;;;4981005;28;20645;-80
2021/11/19 05:40:18;;;;;;;6.03;3.92;;;;;;;;;;4991138;28;20672;-80
2021/11/19 05:42:46;;;;;;;9.57;4.72;;;;;;;;;;4977857;28;20222;-80
2021/11/19 05:45:12;;;;;;;5.30;3.67;;;;;;;;;;4990283;28;20171;-80
2021/11/19 05:47:38;;;;;;;4.55;3.42;;;;;;;;;;4980195;28;20195;-80
2021/11/19 05:50:06;;;;;;;6.55;4.55;;;;;;;;;;4993450;28;20219;-80
2021/11/19 05:52:32;;;;;;;5.25;4.07;;;;;;;;;;4994551;28;20192;-80
2021/11/19 05:55:00;;;;;;;5.07;3.97;;;;;;;;;;4976877;28;20247;-80
2021/11/19 05:57:26;;;;;;;5.35;3.42;;;;;;;;;;4992561;28;20297;-79
2021/11/19 05:59:52;;;;;;;8.98;4.85;;;;;;;;;;4976039;28;20199;-80
2021/11/19 06:02:19;;;;;;;9.73;4.28;;;;;;;;;;4991433;28;20277;-80
2021/11/19 06:04:45;;;;;;;5.35;3.15;;;;;;;;;;4980226;28;20266;-80
2021/11/19 06:07:12;;;;;;;7.93;4.30;;;;;;;;;;4991779;28;20256;-80
2021/11/19 06:09:40;;;;;;;8.07;4.60;;;;;;;;;;4979889;28;20183;-80
2021/11/19 06:12:12;;;;;;;3.92;3.63;;;;;;;;;;4989965;28;20677;-80
2021/11/19 06:14:41;;;;;;;8.40;4.20;;;;;;;;;;4990008;28;20220;-80
2021/11/19 06:17:30;;;;;;;8.88;4.40;;;;;;;;;;4992680;28;20212;-80
2021/11/19 06:19:58;;;;;;;7.60;4.50;;;;;;;;;;4975337;28;20251;-80
2021/11/19 06:22:36;;;;;;;4.30;3.75;;;;;;;;;;4992767;28;20180;-80
2021/11/19 06:25:04;;;;;;;9.63;3.97;;;;;;;;;;4976199;28;20226;-80
2021/11/19 06:27:32;;;;;;;12.55;4.25;;;;;;;;;;4977956;28;20266;-80
2021/11/19 06:29:59;;;;;;;6.47;3.95;;;;;;;;;;4989983;28;20191;-80
2021/11/19 06:32:25;;;;;;;9.13;4.22;;;;;;;;;;4990855;28;20196;-80
2021/11/19 06:34:53;;;;;;;4.50;3.92;;;;;;;;;;4981533;28;20182;-80
2021/11/19 06:37:19;;;;;;;8.25;4.60;;;;;;;;;;4976620;28;20207;-80
2021/11/19 06:39:45;;;;;;;4.23;3.83;;;;;;;;;;4976733;28;20180;-80
2021/11/19 06:42:12;;;;;;;6.25;4.40;;;;;;;;;;4990829;28;20426;-80
2021/11/19 06:44:39;;;;;;;6.53;3.85;;;;;;;;;;4989222;28;20176;-81
2021/11/19 06:47:05;;;;;;;6.38;4.32;;;;;;;;;;4992843;28;20199;-80
2021/11/19 06:49:32;;;;;;;4.85;3.53;;;;;;;;;;4979387;28;20218;-80
2021/11/19 06:51:58;;;;;;;8.45;4.30;;;;;;;;;;4975887;28;20192;-80
2021/11/19 06:54:24;;;;;;;8.65;3.95;;;;;;;;;;4992245;28;20180;-81
2021/11/19 06:56:51;;;;;;;12.25;4.10;;;;;;;;;;4994414;28;20255;-80
2021/11/19 06:59:17;;;;;;;9.30;3.90;;;;;;;;;;4981549;28;20251;-80
2021/11/19 07:01:43;;;;;;;11.17;5.57;;;;;;;;;;4979277;28;20187;-80
2021/11/19 07:04:10;;;;;;;8.15;4.55;;;;;;;;;;4976125;28;20435;-81
2021/11/19 07:06:36;;;;;;;9.90;4.43;;;;;;;;;;4981793;28;20183;-81
2021/11/19 07:09:03;;;;;;;8.73;4.68;;;;;;;;;;4978788;28;20588;-81
2021/11/19 07:11:30;;;;;;;10.38;5.18;;;;;;;;;;4993514;28;20242;-81
2021/11/19 07:13:56;;;;;;;10.50;4.63;;;;;;;;;;4998396;28;20192;-81
2021/11/19 07:16:24;;;;;;;7.93;5.68;;;;;;;;;;4996384;28;20207;-81
2021/11/19 07:18:50;;;;;;;6.93;4.63;;;;;;;;;;4982009;28;20267;-81
2021/11/19 07:21:16;;;;;;;6.32;4.85;;;;;;;;;;4999669;28;20176;-81
2021/11/19 07:23:42;;;;;;;7.55;4.70;;;;;;;;;;4993403;28;20180;-81
2021/11/19 07:26:09;;;;;;;8.10;4.78;;;;;;;;;;4996172;28;20251;-81
2021/11/19 07:28:35;;;;;;;9.40;5.25;;;;;;;;;;4996456;28;20201;-80
2021/11/19 07:31:03;;;;;;;6.22;4.22;;;;;;;;;;4978841;28;20218;-81
2021/11/19 07:33:29;;;;;;;7.40;4.95;;;;;;;;;;4996787;28;20187;-81
2021/11/19 07:35:56;;;;;;;11.07;5.90;;;;;;;;;;4993320;28;20203;-81
2021/11/19 07:38:23;;;;;;;9.57;5.22;;;;;;;;;;4997266;28;20180;-81
2021/11/19 07:40:51;;;;;;;9.43;5.22;;;;;;;;;;4985145;28;20243;-80
2021/11/19 07:43:18;;;;;;;6.53;4.80;;;;;;;;;;4982158;28;20188;-81
2021/11/19 07:45:44;;;;;;;8.82;5.10;;;;;;;;;;4979959;28;20191;-80
2021/11/19 07:48:12;;;;;;;7.97;4.82;;;;;;;;;;4986212;28;20271;-80
2021/11/19 07:50:39;;;;;;;7.07;4.50;;;;;;;;;;4998413;28;20202;-81
2021/11/19 07:53:05;;;;;;;6.70;4.90;;;;;;;;;;4982078;28;20183;-80
2021/11/19 07:55:31;;;;;;;6.67;5.07;;;;;;;;;;4983454;28;20708;-81
2021/11/19 07:57:58;;;;;;;9.45;4.80;;;;;;;;;;4980767;28;20431;-81
2021/11/19 08:00:26;;;;;;;7.22;5.57;;;;;;;;;;4993534;28;20250;-81
2021/11/19 08:02:52;;;;;;;9.93;4.97;;;;;;;;;;4985010;28;20176;-82
2021/11/19 08:05:18;;;;;;;6.05;5.30;;;;;;;;;;4983517;28;20186;-81
2021/11/19 08:07:44;;;;;;;7.45;4.63;;;;;;;;;;4981544;28;20199;-81
2021/11/19 08:10:10;;;;;;;6.38;5.45;;;;;;;;;;5000597;28;20254;-81
2021/11/19 08:12:37;;;;;;;6.25;5.22;;;;;;;;;;4989832;28;20643;-80
2021/11/19 08:15:04;;;;;;;9.82;6.43;;;;;;;;;;4994869;28;20211;-80
2021/11/19 08:17:35;;;;;;;5.68;5.13;;;;;;;;;;4994753;28;20227;-80
2021/11/19 08:20:01;;;;;;;7.40;5.10;;;;;;;;;;4980439;28;20244;-80
2021/11/19 08:22:28;;;;;;;6.18;4.88;;;;;;;;;;4994334;28;20184;-80
2021/11/19 08:24:56;;;;;;;8.00;5.28;;;;;;;;;;4978428;28;20538;-79
2021/11/19 08:27:24;;;;;;;5.45;4.43;;;;;;;;;;4997678;28;20368;-80
2021/11/19 08:29:51;;;;;;;7.45;5.10;;;;;;;;;;4979047;28;20192;-80
2021/11/19 08:32:18;;;;;;;10.23;5.03;;;;;;;;;;4994909;28;20242;-80
2021/11/19 08:34:45;;;;;;;9.13;6.10;;;;;;;;;;4998108;28;20184;-81
2021/11/19 08:37:11;;;;;;;8.65;5.13;;;;;;;;;;4981053;28;20204;-81
2021/11/19 08:39:38;;;;;;;7.97;4.32;;;;;;;;;;4995875;28;20175;-81
2021/11/19 08:42:06;;;;;;;6.53;4.90;;;;;;;;;;4993571;28;20183;-80
2021/11/19 08:44:32;;;;;;;9.07;4.80;;;;;;;;;;4978499;28;20191;-80
2021/11/19 08:46:58;;;;;;;6.50;4.77;;;;;;;;;;4996884;28;20192;-80
2021/11/19 08:49:26;;;;;;;6.60;4.95;;;;;;;;;;4995678;28;20450;-81
2021/11/19 08:51:52;;;;;;;10.63;4.90;;;;;;;;;;4977563;28;20179;-81
2021/11/19 08:54:18;;;;;;;11.43;5.43;;;;;;;;;;4994741;28;20191;-81
2021/11/19 08:56:47;;;;;;;6.50;4.65;;;;;;;;;;4993756;28;20204;-80
2021/11/19 08:59:14;;;;;;;8.65;5.10;;;;;;;;;;4983279;28;20184;-81
2021/11/19 09:01:42;;;;;;;7.93;4.65;;;;;;;;;;4997012;28;20191;-80
2021/11/19 09:04:09;;;;;;;14.63;7.40;;;;;;;;;;4977843;28;20192;-81
2021/11/19 09:06:35;;;;;;;10.48;6.78;;;;;;;;;;4994422;28;20282;-81
2021/11/19 09:09:01;;;;;;;10.65;7.75;;;;;;;;;;4996936;28;20203;-81
2021/11/19 09:11:27;;;;;;;9.98;8.32;;;;;;;;;;4980677;28;20266;-80
2021/11/19 09:13:56;;;;;;;12.50;8.70;;;;;;;;;;4997651;28;20195;-80
2021/11/19 09:16:24;;;;;;;12.70;9.00;;;;;;;;;;4977887;28;20564;-81
2021/11/19 09:19:08;;;;;;;11.95;9.82;;;;;;;;;;4979584;28;20198;-80
2021/11/19 09:21:46;;;;;;;9.52;8.52;;;;;;;;;;4993742;28;20186;-81
2021/11/19 09:24:17;;;;;;;12.20;9.32;;;;;;;;;;4984127;28;20266;-80
2021/11/19 09:26:45;;;;;;;12.68;9.38;;;;;;;;;;4991652;28;20227;-80
2021/11/19 09:29:13;;;;;;;11.02;9.70;;;;;;;;;;4992188;28;20195;-81
2021/11/19 09:31:40;;;;;;;13.43;9.00;;;;;;;;;;4980335;28;20188;-81
2021/11/19 09:34:07;;;;;;;12.80;8.75;;;;;;;;;;4979929;28;20179;-81
2021/11/19 09:36:34;;;;;;;11.85;9.18;;;;;;;;;;4983608;28;20203;-81
2021/11/19 09:39:00;;;;;;;11.65;8.15;;;;;;;;;;4979736;28;20179;-81
2021/11/19 09:41:45;;;;;;;13.90;9.30;;;;;;;;;;4992621;28;20181;-81
2021/11/19 09:44:35;;;;;;;15.23;8.82;;;;;;;;;;4995339;28;20666;-80
2021/11/19 09:47:25;;;;;;;14.18;9.23;;;;;;;;;;4978151;28;20256;-80
2021/11/19 09:50:03;;;;;;;15.98;10.45;;;;;;;;;;4976019;28;20713;-80
2021/11/19 09:52:29;;;;;;;16.40;9.20;;;;;;;;;;4994555;28;20188;-79
2021/11/19 09:55:14;;;;;;;15.40;10.50;;;;;;;;;;4993926;28;20184;-79
2021/11/19 09:57:58;;;;;;;13.27;9.13;;;;;;;;;;4989442;28;20482;-80
2021/11/19 10:00:31;;;;;;;15.32;9.40;;;;;;;;;;4994621;28;20547;-80
2021/11/19 10:03:09;;;;;;;22.27;9.70;;;;;;;;;;4990643;28;20271;-80
2021/11/19 10:05:50;;;;;;;14.35;8.93;;;;;;;;;;4990343;28;20564;-80
2021/11/19 10:08:41;;;;;;;14.55;8.75;;;;;;;;;;5005427;28;20182;-80
2021/11/19 10:11:15;;;;;;;13.95;8.90;;;;;;;;;;4973230;28;20254;-79
2021/11/19 10:13:47;;;;;;;11.27;9.10;;;;;;;;;;4979580;28;20247;-80
2021/11/19 10:16:30;;;;;;;12.75;8.70;;;;;;;;;;5006791;28;20207;-79
2021/11/19 10:18:58;;;;;;;13.32;8.45;;;;;;;;;;4980380;28;20559;-80
2021/11/19 10:21:28;;;;;;;14.73;8.55;;;;;;;;;;4977106;28;20564;-80
2021/11/19 10:23:57;;;;;;;13.85;9.30;;;;;;;;;;4980302;28;20203;-80
2021/11/19 10:26:30;;;;;;;13.02;9.10;;;;;;;;;;4991409;28;20195;-80
2021/11/19 10:29:15;;;;;;;10.10;9.10;;;;;;;;;;4977268;28;20179;-80
2021/11/19 10:31:41;;;;;;;14.15;7.80;;;;;;;;;;4980902;28;20207;-81
2021/11/19 10:34:22;;;;;;;13.03;8.83;;;;;;;;;;4979875;28;20220;-80
2021/11/19 10:36:48;;;;;;;10.20;8.85;;;;;;;;;;4971884;28;20470;-80
2021/11/19 10:39:14;;;;;;;11.83;8.63;;;;;;;;;;4981892;28;20203;-80
2021/11/19 10:41:46;;;;;;;10.90;8.48;;;;;;;;;;4994119;28;20501;-80
2021/11/19 10:44:18;;;;;;;11.32;8.45;;;;;;;;;;4991744;28;20765;-80
2021/11/19 10:46:51;;;;;;;11.52;8.75;;;;;;;;;;4998046;28;20259;-80
2021/11/19 10:49:20;;;;;;;10.10;8.13;;;;;;;;;;4983155;28;20234;-80
2021/11/19 10:51:52;;;;;;;17.80;10.07;;;;;;;;;;4978976;28;20177;-80
2021/11/19 10:54:46;;;;;;;16.50;10.05;;;;;;;;;;4986731;28;20204;-80
2021/11/19 10:57:35;;;;;;;11.05;8.70;;;;;;;;;;5000359;28;20208;-80
2021/11/19 11:00:10;;;;;;;11.00;9.35;;;;;;;;;;4965007;28;20251;-80
2021/11/19 11:02:39;;;;;;;14.32;9.20;;;;;;;;;;4964148;28;20192;-81
2021/11/19 11:05:18;;;;;;;14.02;9.77;;;;;;;;;;4979265;28;20297;-80
2021/11/19 11:08:00;;;;;;;13.98;10.00;;;;;;;;;;4982598;28;20184;-79
2021/11/19 11:10:30;;;;;;;11.80;8.40;;;;;;;;;;4981269;28;20219;-80
2021/11/19 11:12:56;;;;;;;9.13;8.07;;;;;;;;;;4962098;28;20181;-80
2021/11/19 11:15:29;;;;;;;12.00;8.82;;;;;;;;;;4981420;28;20743;-80
2021/11/19 11:18:03;;;;;;;11.10;9.20;;;;;;;;;;4961313;28;20208;-80
2021/11/19 11:20:32;;;;;;;14.43;8.18;;;;;;;;;;4973363;28;20202;-80
2021/11/19 11:23:00;;;;;;;13.30;8.70;;;;;;;;;;4966886;28;20196;-80
2021/11/19 11:25:34;;;;;;;13.15;8.95;;;;;;;;;;4962105;28;20177;-80
2021/11/19 11:28:08;;;;;;;12.65;8.80;;;;;;;;;;4982301;28;20793;-80
2021/11/19 11:30:57;;;;;;;11.07;8.73;;;;;;;;;;4984475;28;20207;-80
2021/11/19 11:33:28;;;;;;;11.48;8.52;;;;;;;;;;4965077;28;20195;-80
2021/11/19 11:35:55;;;;;;;12.52;9.05;;;;;;;;;;4962574;28;20218;-81
2021/11/19 11:38:28;;;;;;;11.20;9.40;;;;;;;;;;4995535;28;20242;-80
2021/11/19 11:41:06;;;;;;;14.63;10.23;;;;;;;;;;4998108;28;20188;-80
2021/11/19 11:43:38;;;;;;;16.45;9.82;;;;;;;;;;4984749;28;20184;-81
2021/11/19 11:46:16;;;;;;;18.10;9.48;;;;;;;;;;4998907;28;20361;-80
2021/11/19 11:49:01;;;;;;;11.88;8.43;;;;;;;;;;4997050;28;20179;-81
2021/11/19 11:51:38;;;;;;;13.93;7.93;;;;;;;;;;4982146;28;20183;-80
2021/11/19 11:54:25;;;;;;;12.45;8.68;;;;;;;;;;4999289;28;20191;-81
2021/11/19 11:57:15;;;;;;;14.57;9.40;;;;;;;;;;4999407;28;20296;-81
2021/11/19 11:59:50;;;;;;;16.58;9.18;;;;;;;;;;4980961;28;20219;-80
2021/11/19 12:02:25;;;;;;;11.88;7.90;;;;;;;;;;4994042;28;20509;-80
2021/11/19 12:04:51;;;;;;;15.38;9.55;;;;;;;;;;4982087;28;20201;-81
2021/11/19 12:07:31;;;;;;;14.27;8.27;;;;;;;;;;4982949;28;20187;-80
2021/11/19 12:10:07;;;;;;;16.27;8.45;;;;;;;;;;5001960;28;20225;-81
2021/11/19 12:12:38;;;;;;;12.60;7.82;;;;;;;;;;4998457;28;20268;-81
2021/11/19 12:15:08;;;;;;;10.90;8.40;;;;;;;;;;5000712;28;20199;-80
2021/11/19 12:17:49;;;;;;;10.75;7.75;;;;;;;;;;4996076;28;20212;-80
2021/11/19 12:20:31;;;;;;;12.25;8.85;;;;;;;;;;4982887;28;20191;-80
2021/11/19 12:23:02;;;;;;;16.13;8.77;;;;;;;;;;4974429;28;20247;-81
2021/11/19 12:25:47;;;;;;;15.20;9.68;;;;;;;;;;4996743;28;20210;-81
2021/11/19 12:28:18;;;;;;;13.80;9.68;;;;;;;;;;4991357;28;20182;-80
2021/11/19 12:30:47;;;;;;;13.05;9.05;;;;;;;;;;4995445;28;20238;-81
2021/11/19 12:33:16;;;;;;;11.70;8.52;;;;;;;;;;4984658;28;20183;-80
2021/11/19 12:35:51;;;;;;;16.25;9.07;;;;;;;;;;4986139;28;20288;-81
2021/11/19 12:38:24;;;;;;;16.45;10.00;;;;;;;;;;4990872;28;20180;-81
2021/11/19 12:40:50;;;;;;;18.38;8.15;;;;;;;;;;4992104;28;20548;-80
2021/11/19 12:43:35;;;;;;;17.53;9.73;;;;;;;;;;4992187;28;20187;-80
2021/11/19 12:46:24;;;;;;;11.27;10.18;;;;;;;;;;4995828;28;20809;-80
2021/11/19 12:48:50;;;;;;;13.13;8.88;;;;;;;;;;4996639;28;20243;-80
2021/11/19 12:51:25;;;;;;;11.80;8.80;;;;;;;;;;4984198;28;20184;-81
2021/11/19 12:54:06;;;;;;;11.07;8.50;;;;;;;;;;4993175;28;20435;-81
2021/11/19 12:56:51;;;;;;;12.55;8.60;;;;;;;;;;4992302;28;20208;-81
2021/11/19 12:59:18;;;;;;;12.95;10.18;;;;;;;;;;4979520;28;20593;-81
2021/11/19 13:02:03;;;;;;;11.82;9.70;;;;;;;;;;4981314;28;20234;-80
2021/11/19 13:04:37;;;;;;;12.60;9.93;;;;;;;;;;4992999;28;20172;-81
2021/11/19 13:07:07;;;;;;;13.98;9.57;;;;;;;;;;4979227;28;20179;-81
2021/11/19 13:09:33;;;;;;;9.00;4.78;;;;;;;;;;4994245;28;20211;-81
2021/11/19 13:11:59;;;;;;;4.50;4.10;;;;;;;;;;4980357;28;20239;-81
2021/11/19 13:14:30;;;;;;;7.50;4.53;;;;;;;;;;4991477;28;20945;-81
2021/11/19 13:16:56;;;;;;;9.73;4.35;;;;;;;;;;4985570;28;20469;-81
2021/11/19 13:19:28;;;;;;;4.80;4.30;;;;;;;;;;4993327;28;20184;-81
2021/11/19 13:22:02;;;;;;;5.03;4.53;;;;;;;;;;4977741;28;20729;-81
2021/11/19 13:24:28;;;;;;;5.28;4.45;;;;;;;;;;4978644;28;20180;-81
2021/11/19 13:27:21;;;;;;;6.10;4.97;;;;;;;;;;4976530;28;20180;-81
2021/11/19 13:29:50;;;;;;;6.15;4.60;;;;;;;;;;4974517;28;20447;-81
2021/11/19 13:32:23;;;;;;;8.18;4.95;;;;;;;;;;4978379;28;20742;-81
2021/11/19 13:34:58;;;;;;;5.43;3.90;;;;;;;;;;4996149;28;20215;-81
2021/11/19 13:37:33;;;;;;;6.57;4.25;;;;;;;;;;4993080;28;20204;-81
2021/11/19 13:40:18;;;;;;;7.00;4.53;;;;;;;;;;4978885;28;20171;-81
2021/11/19 13:42:48;;;;;;;6.28;4.50;;;;;;;;;;4999729;28;20568;-81
2021/11/19 13:45:26;;;;;;;5.25;4.40;;;;;;;;;;4977062;28;20252;-81
2021/11/19 13:47:57;;;;;;;5.00;4.10;;;;;;;;;;4996191;28;20191;-81
2021/11/19 13:50:25;;;;;;;4.85;4.10;;;;;;;;;;4977055;28;20180;-81
2021/11/19 13:53:00;;;;;;;7.97;4.22;;;;;;;;;;4981036;28;20172;-81
2021/11/19 13:55:45;;;;;;;5.00;4.25;;;;;;;;;;4992758;28;20184;-81
2021/11/19 13:58:11;;;;;;;7.82;4.50;;;;;;;;;;4975517;28;20177;-81
2021/11/19 14:00:41;;;;;;;5.00;4.50;;;;;;;;;;4994042;28;20207;-81
2021/11/19 14:03:34;;;;;;;5.68;4.90;;;;;;;;;;4990884;28;20443;-81
2021/11/19 14:06:23;;;;;;;12.52;10.02;;;;;;;;;;4969922;28;20244;-81
2021/11/19 14:09:00;;;;;;;7.43;6.15;;;;;;;;;;4972201;28;20203;-81
2021/11/19 14:11:28;;;;;;;6.38;5.03;;;;;;;;;;4990537;28;20223;-81
2021/11/19 14:13:55;;;;;;;6.15;4.03;;;;;;;;;;4976789;28;20188;-81
2021/11/19 14:16:21;;;;;;;9.27;4.35;;;;;;;;;;4979325;28;20222;-81
2021/11/19 14:19:08;;;;;;;5.03;4.20;;;;;;;;;;4978067;28;20180;-81
2021/11/19 14:22:00;;;;;;;5.78;3.88;;;;;;;;;;4993867;28;20415;-82
2021/11/19 14:24:32;;;;;;;4.40;4.00;;;;;;;;;;4991757;28;20192;-81
2021/11/19 14:27:07;;;;;;;6.00;3.80;;;;;;;;;;4976162;28;20180;-80
2021/11/19 14:29:38;;;;;;;5.88;4.30;;;;;;;;;;4975250;28;20720;-81
2021/11/19 14:32:06;;;;;;;4.55;4.10;;;;;;;;;;4978896;28;20192;-80
2021/11/19 14:34:44;;;;;;;6.05;4.65;;;;;;;;;;4992877;28;20195;-81
2021/11/19 14:37:27;;;;;;;5.47;4.20;;;;;;;;;;4975120;28;20204;-81
2021/11/19 14:39:54;;;;;;;6.05;4.35;;;;;;;;;;4980195;28;20645;-80
2021/11/19 14:42:22;;;;;;;4.72;4.07;;;;;;;;;;4977452;28;20242;-81
2021/11/19 14:44:54;;;;;;;5.60;5.00;;;;;;;;;;4991648;28;20192;-81
2021/11/19 14:47:23;;;;;;;7.03;5.22;;;;;;;;;;4991083;28;20185;-81
2021/11/19 14:50:12;;;;;;;7.55;6.40;;;;;;;;;;4980039;28;20219;-81
2021/11/19 14:52:46;;;;;;;11.15;5.82;;;;;;;;;;4976880;28;20197;-82
2021/11/19 14:55:21;;;;;;;6.68;5.47;;;;;;;;;;4979918;28;20198;-81
2021/11/19 14:57:53;;;;;;;6.57;5.03;;;;;;;;;;4977854;28;20208;-80